Tiempo atmosférico en la estación meteorológica de Agüimes, Las Palmas (306 m.)

Fecha
DESCASC
Temp. máxima en grados centígrados (hora)
DESCASC
Temp. mínima en grados centígrados (hora)
DESCASC
Temp. media en grados centígrados
DESCASC
Racha de viento máxima en m/sg (hora)
DESCASC
Velocidad máxima media en intervalos de 10 minutos(hora)
DESCASC
Precipitaciones diarias en mm
DESCASC
Precipitaciones de 00:00 a 06:00 en mm
DESCASC
Precipitaciones de 06:00 a 12:00 en mm
DESCASC
Precipitaciones de 12:00 a 18:00 en mm
DESCASC
Precipitaciones de 18:00 a 24:00 en mm
DESCASC
17-08-2017 36 (15:20) 24.3 (00:10) 30.1 15.83 (21:00) 11.39 (05:00) 0 0 0 0 0
16-08-2017 32.3 (14:00) 19.6 (05:40) 25.9 14.17 (12:20) 10 (14:30) 0 0 0 0 0
15-08-2017 30.3 (14:30) 17.6 (00:00) 23.9 11.67 (20:10) 8.33 (19:00) 0 0 0 0 0
14-08-2017 30.5 (15:40) 17.5 (07:40) 24 8.61 (18:10) 5.83 (17:30) 0 0 0 0 0
13-08-2017 32.1 (14:50) 20.1 (00:00) 26.1 14.72 (00:10) 9.72 (00:10) 0 0 0 0 0
12-08-2017 31.5 (15:40) 21.3 (00:00) 26.4 17.22 (15:10) 12.5 (15:10) 0 0 0 0 0
11-08-2017 30.8 (04:00) 24.5 (00:00) 27.6 19.72 (22:40) 12.78 (10:10) 0 0 0 0 0
10-08-2017 35.6 (15:50) 28.6 (00:00) 32.1 23.06 (00:50) 13.33 (02:20) 0 0 0 0 0
09-08-2017 39.4 (13:10) 21.3 (00:00) 30.4 19.44 (21:10) 13.89 (21:10) 0 0 0 0 0
08-08-2017 33 (15:10) 22.1 (00:00) 27.6 8.61 (16:00) 5.83 (16:00) 0 0 0 0 0
07-08-2017 37.6 (14:00) 22.3 (00:00) 29.9 12.78 (02:20) 8.89 (02:40) 0 0 0 0 0
06-08-2017 31.8 (15:20) 18.9 (00:00) 25.3 10.83 (13:00) 7.78 (13:00) 0 0 0 0 0
05-08-2017 31.3 (14:10) 18.2 (00:00) 24.8 10.56 (14:10) 6.39 (14:30) 0 0 0 0 0
04-08-2017 30.9 (14:30) 17.8 (00:00) 24.3 12.78 (14:40) 8.33 (12:30) 0 0 0 0 0
03-08-2017 28.7 (16:20) 19.5 (00:00) 24.1 16.39 (15:30) 11.39 (11:00) 0 0 0 0 0
02-08-2017 28.3 (13:40) 19.7 (00:00) 24 16.67 (23:00) 12.78 (21:40) 0 0 0 0 0
01-08-2017 29.4 (15:00) 18.5 (00:00) 23.9 17.5 (13:40) 11.94 (13:40) 0 0 0 0 0
31-07-2017 28 (13:40) 18.2 (00:00) 23.1 16.11 (14:50) 11.11 (13:00) 0 0 0 0 0
30-07-2017 34.9 (13:00) 20.8 (00:00) 27.9 14.44 (10:40) 10.28 (03:20) 0 0 0 0 0
29-07-2017 40.9 (17:20) 26.8 (00:00) 33.9 13.33 (23:50) 9.17 (23:50) 0 0 0 0 0
28-07-2017 39.5 (14:40) 28.4 (00:00) 33.9 16.94 (05:10) 12.5 (04:00) 0 0 0 0 0
27-07-2017 39.6 (16:30) 31.2 (00:00) 35.4 14.17 (01:00) 10.28 (23:59) 0 0 0 0 0
26-07-2017 38.5 (16:10) 23.4 (00:00) 30.9 14.44 (01:00) 10.28 (00:10) 0 0 0 0 0
25-07-2017 33.1 (17:40) 27.4 (00:00) 30.2 16.11 (01:00) 11.67 (00:40) 0 0 0 0 0
24-07-2017 33 (16:50) 19.4 (00:00) 26.2 18.06 (20:50) 12.5 (00:10) 0 0 0 0 0
23-07-2017 28.1 (18:40) 19.1 (00:00) 23.6 21.67 (01:50) 13.61 (15:50) 0 0 0 0 0
22-07-2017 25.4 (14:00) 19.1 (00:00) 22.3 19.72 (22:50) 12.5 (22:50) 0 0 0 0 0
21-07-2017 -- (--) -- (--) -- -- (--) -- (--) -- -- -- 0 0
20-07-2017 -- (--) -- (--) -- -- (--) -- (--) -- -- -- -- --
19-07-2017 -- (--) -- (--) -- -- (--) -- (--) -- 0 0 -- --

Gráficas

Temp. máximas Temp. mínimas Temp. medias Precipitaciones Rachas de viento máximas Velocidades máximas media en intervalos de 10 minutos

Datos horarios

Fecha y hora oficial Temperatura (ºC) Velocidad del viento (km/h) Dirección del viento Racha (km/h) Dirección de racha Precipitación (mm) Presión (hPa) Tendencia (hPa) Humedad (%)
2017-08-17 23:00:00 30 37 Norte 54 Norte 0 -- -- 16
2017-08-17 22:00:00 30.1 36 Norte 56 Norte 0 -- -- 16
2017-08-17 21:00:00 31.6 39 Norte 57 Norte 0 -- -- 16
2017-08-17 20:00:00 32.7 31 Norte 52 Norte 0 -- -- 18
2017-08-17 19:00:00 34.4 29 Norte 48 Norte 0 -- -- 18
2017-08-17 18:00:00 35.2 29 Norte 49 Norte 0 -- -- 20
2017-08-17 17:00:00 34.9 30 Norte 44 Norte 0 -- -- 19
2017-08-17 16:00:00 35.1 31 Norte 51 Norte 0 -- -- 20
2017-08-17 15:00:00 35.6 31 Norte 48 Norte 0 -- -- 21
2017-08-17 14:00:00 35.1 33 Norte 54 Norte 0 -- -- 21
2017-08-17 13:00:00 34.9 28 Norte 47 Norte 0 -- -- 21
2017-08-17 12:00:00 34.2 27 Nordeste 48 Norte 0 -- -- 25
2017-08-17 11:00:00 32.8 33 Norte 53 Norte 0 -- -- 23
2017-08-17 10:00:00 30.8 31 Norte 53 Norte 0 -- -- 25
2017-08-17 09:00:00 30.1 23 Norte 43 Norte 0 -- -- 26
2017-08-17 08:00:00 29.3 27 Norte 52 Norte 0 -- -- 27
2017-08-17 07:00:00 28.7 32 Norte 52 Norte 0 -- -- 27
2017-08-17 06:00:00 27.7 36 Norte 55 Norte 0 -- -- 28
2017-08-17 05:00:00 27.7 41 Norte 55 Norte 0 -- -- 30
2017-08-17 04:00:00 26.7 31 Norte 47 Norte 0 -- -- 43
2017-08-17 03:00:00 27.4 27 Norte 42 Norte 0 -- -- 45
2017-08-17 02:00:00 27.9 15 Norte 35 Norte 0 -- -- 25
2017-08-17 01:00:00 27.1 12 Norte 31 Norte 0 -- -- 24
2017-08-17 00:00:00 25.8 22 Norte 39 Nordeste 0 -- -- 53
2017-08-16 23:00:00 22.5 27 Nordeste 39 Nordeste 0 -- -- 69
2017-08-16 22:00:00 24.5 17 Nordeste 28 Norte 0 -- -- 48
2017-08-16 21:00:00 26.5 6 Noroeste 40 Norte 0 -- -- 51
2017-08-16 20:00:00 27.1 31 Norte 44 Nordeste 0 -- -- 49
2017-08-16 19:00:00 29.1 30 Nordeste 48 Norte 0 -- -- 47
2017-08-16 18:00:00 30.2 32 Nordeste 45 Nordeste 0 -- -- 45
2017-08-16 17:00:00 31.1 31 Nordeste 46 Norte 0 -- -- 44
2017-08-16 16:00:00 31.1 34 Nordeste 47 Nordeste 0 -- -- 46
2017-08-16 15:00:00 31.6 33 Nordeste 49 Nordeste 0 -- -- 44
2017-08-16 14:00:00 32.3 31 Nordeste 50 Nordeste 0 -- -- 40
2017-08-16 13:00:00 31.1 35 Norte 51 Nordeste 0 -- -- 41
2017-08-16 12:00:00 30.1 33 Norte 46 Nordeste 0 -- -- 40
2017-08-16 11:00:00 28.6 29 Norte 44 Norte 0 -- -- 44
2017-08-16 10:00:00 27.1 22 Norte 34 Nordeste 0 -- -- 46
2017-08-16 09:00:00 22 5 Sudoeste 39 Norte 0 -- -- 70
2017-08-16 08:00:00 20 27 Norte 49 Norte 0 -- -- 80
2017-08-16 07:00:00 19.7 33 Norte 49 Norte 0 -- -- 82
2017-08-16 06:00:00 20.1 28 Norte 40 Nordeste 0 -- -- 78
2017-08-16 05:00:00 19.7 9 Norte 31 Norte 0 -- -- 81
2017-08-16 04:00:00 20.1 14 Norte 27 Norte 0 -- -- 77
2017-08-16 03:00:00 20.2 9 Norte 35 Norte 0 -- -- 78
2017-08-16 02:00:00 20.2 21 Norte 32 Norte 0 -- -- 81
2017-08-16 01:00:00 20.5 14 Norte 39 Norte 0 -- -- 78
2017-08-16 00:00:00 20.5 22 Norte 33 Norte 0 -- -- 79
2017-08-15 23:00:00 20.9 14 Norte 30 Norte 0 -- -- 76
2017-08-15 22:00:00 21.5 13 Norte 32 Norte 0 -- -- 73
2017-08-15 21:00:00 21.9 20 Nordeste 42 Norte 0 -- -- 75
2017-08-15 20:00:00 22.7 27 Nordeste 41 Nordeste 0 -- -- 73
2017-08-15 19:00:00 24.7 30 Norte 40 Norte 0 -- -- 67
2017-08-15 18:00:00 26.6 26 Nordeste 39 Nordeste 0 -- -- 60
2017-08-15 17:00:00 27.6 24 Nordeste 38 Nordeste 0 -- -- 57
2017-08-15 16:00:00 28.9 23 Nordeste 36 Nordeste 0 -- -- 54
2017-08-15 15:00:00 30 21 Nordeste 30 Nordeste 0 -- -- 49
2017-08-15 14:00:00 29.9 19 Nordeste 28 Nordeste 0 -- -- 49
2017-08-15 13:00:00 28.6 20 Nordeste 31 Nordeste 0 -- -- 53
2017-08-15 12:00:00 27.8 19 Nordeste 30 Nordeste 0 -- -- 54
2017-08-15 11:00:00 26.5 16 Nordeste 29 Este 0 -- -- 57
2017-08-15 10:00:00 24 12 Nordeste 18 Nordeste 0 -- -- 63
2017-08-15 09:00:00 21.1 10 Nordeste 15 Nordeste 0 -- -- 73
2017-08-15 08:00:00 18.2 10 Norte 15 Nordeste 0 -- -- 80
2017-08-15 07:00:00 17.9 0 Calma 5 Noroeste 0 -- -- 81
2017-08-15 06:00:00 17.9 2 Nordeste 5 Nordeste 0 -- -- 79
2017-08-15 05:00:00 18.4 5 Norte 6 Nordeste 0 -- -- 81
2017-08-15 04:00:00 18.8 0 Calma 8 Norte 0 -- -- 77
2017-08-15 03:00:00 19.1 3 Este 8 Nordeste 0 -- -- 79
2017-08-15 02:00:00 19.7 3 Nordeste 5 Norte 0 -- -- 79
2017-08-15 01:00:00 20.3 3 Norte 5 Noroeste 0 -- -- 79
2017-08-15 00:00:00 20.8 0 Calma 6 Este 0 -- -- 79
2017-08-14 23:00:00 21.5 6 Nordeste 11 Nordeste 0 -- -- 75
2017-08-14 22:00:00 21.9 8 Nordeste 14 Nordeste 0 -- -- 75
2017-08-14 21:00:00 22.8 9 Nordeste 18 Nordeste 0 -- -- 71
2017-08-14 20:00:00 24.8 13 Nordeste 23 Nordeste 0 -- -- 64
2017-08-14 19:00:00 26.9 18 Nordeste 31 Nordeste 0 -- -- 58
2017-08-14 18:00:00 28.6 17 Nordeste 30 Nordeste 0 -- -- 53
2017-08-14 17:00:00 29.4 16 Nordeste 27 Nordeste 0 -- -- 50
2017-08-14 16:00:00 29.6 16 Nordeste 27 Nordeste 0 -- -- 45
2017-08-14 15:00:00 29.4 14 Nordeste 23 Este 0 -- -- 44
2017-08-14 14:00:00 28.6 11 Este 21 Este 0 -- -- 44
2017-08-14 13:00:00 28.4 14 Sur 27 Sur 0 -- -- 48
2017-08-14 12:00:00 27.1 10 Sur 17 Sudeste 0 -- -- 55
2017-08-14 11:00:00 24.7 5 Sur 13 Sudeste 0 -- -- 61
2017-08-14 10:00:00 22.6 5 Sudeste 10 Sur 0 -- -- 70
2017-08-14 09:00:00 20.7 4 Nordeste 6 Nordeste 0 -- -- 81
2017-08-14 08:00:00 17.9 4 Oeste 7 Oeste 0 -- -- 91
2017-08-14 07:00:00 17.9 0 Calma 4 Noroeste 0 -- -- 88
2017-08-14 06:00:00 18.2 0 Calma 7 Nordeste 0 -- -- 85
2017-08-14 05:00:00 18.5 3 Norte 6 Sur 0 -- -- 84
2017-08-14 04:00:00 19.1 3 Sudoeste 9 Sur 0 -- -- 77
2017-08-14 03:00:00 19.7 8 Nordeste 13 Nordeste 0 -- -- 70
2017-08-14 02:00:00 19.2 3 Oeste 6 Este 0 -- -- 81
2017-08-14 01:00:00 19.6 4 Sudoeste 5 Oeste 0 -- -- 83
2017-08-14 00:00:00 20.1 0 Calma 5 Sur 0 -- -- 81
2017-08-13 23:00:00 20.6 3 Sur 6 Sur 0 -- -- 78
2017-08-13 22:00:00 21.2 3 Sur 10 Sur 0 -- -- 75
2017-08-13 21:00:00 21.9 7 Sur 13 Sudeste 0 -- -- 73
2017-08-13 20:00:00 23.6 8 Sur 19 Sudeste 0 -- -- 63
2017-08-13 19:00:00 26 11 Sur 23 Sur 0 -- -- 53
2017-08-13 18:00:00 27.8 20 Sur 31 Sur 0 -- -- 47
2017-08-13 17:00:00 30.5 19 Nordeste 40 Nordeste 0 -- -- 34
2017-08-13 16:00:00 30.5 28 Nordeste 41 Nordeste 0 -- -- 31
2017-08-13 15:00:00 31.7 25 Nordeste 40 Nordeste 0 -- -- 25
2017-08-13 14:00:00 31.3 27 Nordeste 40 Nordeste 0 -- -- 29
2017-08-13 13:00:00 31.6 22 Nordeste 37 Nordeste 0 -- -- 29
2017-08-13 12:00:00 30.4 24 Nordeste 35 Nordeste 0 -- -- 27
2017-08-13 11:00:00 29 17 Nordeste 26 Nordeste 0 -- -- 25
2017-08-13 10:00:00 25.9 8 Sur 14 Sur 0 -- -- 34
2017-08-13 09:00:00 23.4 3 Sudoeste 6 Sudoeste 0 -- -- 43
2017-08-13 08:00:00 21.1 4 Oeste 7 Sur 0 -- -- 46
2017-08-13 07:00:00 23.5 6 Norte 25 Norte 0 -- -- 35
2017-08-13 06:00:00 24.6 19 Norte 32 Norte 0 -- -- 38
2017-08-13 05:00:00 24.7 19 Norte 30 Norte 0 -- -- 37
2017-08-13 04:00:00 25.1 23 Norte 41 Norte 0 -- -- 36
2017-08-13 03:00:00 25.6 28 Norte 43 Norte 0 -- -- 34
2017-08-13 02:00:00 26 32 Norte 45 Norte 0 -- -- 31
2017-08-13 01:00:00 26.1 27 Norte 53 Norte 0 -- -- 31
2017-08-13 00:00:00 26.5 36 Norte 54 Norte 0 -- -- 29
2017-08-12 23:00:00 26.8 40 Norte 53 Norte 0 -- -- 23
2017-08-12 22:00:00 26.7 26 Norte 46 Norte 0 -- -- 22
2017-08-12 21:00:00 27.6 35 Norte 53 Norte 0 -- -- 20
2017-08-12 20:00:00 28.1 30 Norte 49 Norte 0 -- -- 27
2017-08-12 19:00:00 29 35 Norte 54 Norte 0 -- -- 36
2017-08-12 18:00:00 30 36 Norte 62 Norte 0 -- -- 34
2017-08-12 17:00:00 30.3 41 Norte 62 Norte 0 -- -- 33
2017-08-12 16:00:00 31.2 41 Norte 62 Norte 0 -- -- 32
2017-08-12 15:00:00 31.2 39 Nordeste 57 Norte 0 -- -- 35
2017-08-12 14:00:00 29.6 35 Nordeste 51 Nordeste 0 -- -- 44
2017-08-12 13:00:00 27.9 36 Nordeste 56 Nordeste 0 -- -- 54
2017-08-12 12:00:00 26.3 39 Norte 57 Nordeste 0 -- -- 56
2017-08-12 11:00:00 25.1 35 Nordeste 55 Nordeste 0 -- -- 61
2017-08-12 10:00:00 24.1 31 Nordeste 45 Nordeste 0 -- -- 62
2017-08-12 09:00:00 22.9 20 Norte 36 Norte 0 -- -- 60
2017-08-12 08:00:00 21.8 5 Nordeste 40 Norte 0 -- -- 57
2017-08-12 07:00:00 25 30 Norte 44 Norte 0 -- -- 33
2017-08-12 06:00:00 21.3 23 Nordeste 41 Norte 0 -- -- 58
2017-08-12 05:00:00 24.2 27 Norte 49 Norte 0 -- -- 36
2017-08-12 04:00:00 24.9 34 Norte 58 Noroeste 0 -- -- 38
2017-08-12 03:00:00 26 39 Norte 57 Norte 0 -- -- 37
2017-08-12 02:00:00 24.2 33 Norte 54 Norte 0 -- -- 42
2017-08-12 01:00:00 24.2 30 Norte 53 Norte 0 -- -- 47
2017-08-12 00:00:00 24.5 37 Norte 58 Norte 0 -- -- 44
2017-08-11 23:00:00 24.8 40 Norte 71 Norte 0 -- -- 33
2017-08-11 22:00:00 25 32 Norte 47 Norte 0 -- -- 22
2017-08-11 21:00:00 25.3 32 Norte 51 Norte 0 -- -- 26
2017-08-11 20:00:00 25 35 Norte 54 Norte 0 -- -- 34
2017-08-11 19:00:00 27.2 33 Norte 50 Nordeste 0 -- -- 35
2017-08-11 18:00:00 28.8 31 Nordeste 57 Nordeste 0 -- -- 34
2017-08-11 17:00:00 29 37 Nordeste 57 Nordeste 0 -- -- 36
2017-08-11 16:00:00 30.3 35 Norte 57 Nordeste 0 -- -- 34
2017-08-11 15:00:00 29.4 39 Nordeste 60 Nordeste 0 -- -- 31
2017-08-11 14:00:00 30 38 Nordeste 59 Nordeste 0 -- -- 28
2017-08-11 13:00:00 29.3 35 Nordeste 60 Nordeste 0 -- -- 32
2017-08-11 12:00:00 28.2 37 Norte 63 Nordeste 0 -- -- 33
2017-08-11 11:00:00 27.5 40 Norte 67 Norte 0 -- -- 31
2017-08-11 10:00:00 26.1 44 Norte 66 Nordeste 0 -- -- 33
2017-08-11 09:00:00 25.6 35 Norte 49 Norte 0 -- -- 28
2017-08-11 08:00:00 25.1 33 Nordeste 44 Nordeste 0 -- -- 17
2017-08-11 07:00:00 27.8 30 Norte 51 Norte 0 -- -- 6
2017-08-11 06:00:00 28.3 41 Norte 54 Norte 0 -- -- 7
2017-08-11 05:00:00 30.8 35 Norte 55 Norte 0 -- -- 8
2017-08-11 04:00:00 30.8 43 Norte 59 Norte 0 -- -- 9
2017-08-11 03:00:00 30.5 37 Norte 64 Norte 0 -- -- 11
2017-08-11 02:00:00 30.4 41 Norte 63 Norte 0 -- -- 9
2017-08-11 01:00:00 29.8 37 Norte 57 Norte 0 -- -- 13
2017-08-11 00:00:00 29.4 33 Norte 59 Norte 0 -- -- 14
2017-08-10 23:00:00 28.9 36 Norte 63 Norte 0 -- -- 17
2017-08-10 22:00:00 29.5 42 Norte 60 Norte 0 -- -- 18
2017-08-10 21:00:00 28.9 43 Norte 63 Norte 0 -- -- 19
2017-08-10 20:00:00 30.6 36 Norte 57 Nordeste 0 -- -- 19
2017-08-10 19:00:00 32.3 40 Norte 59 Norte 0 -- -- 22
2017-08-10 18:00:00 33.4 36 Norte 54 Norte 0 -- -- 24
2017-08-10 17:00:00 34.9 34 Norte 52 Norte 0 -- -- 24
2017-08-10 16:00:00 35.2 31 Nordeste 48 Norte 0 -- -- 27
2017-08-10 15:00:00 33.9 32 Nordeste 56 Norte 0 -- -- 32
2017-08-10 14:00:00 34.7 39 Norte 60 Norte 0 -- -- 19
2017-08-10 13:00:00 33.1 37 Norte 57 Norte 0 -- -- 23
2017-08-10 12:00:00 32.6 37 Norte 56 Norte 0 -- -- 22
2017-08-10 11:00:00 32.8 35 Nordeste 53 Nordeste 0 -- -- 23
2017-08-10 10:00:00 31.5 38 Norte 55 Nordeste 0 -- -- 19
2017-08-10 09:00:00 30 38 Norte 57 Norte 0 -- -- 21
2017-08-10 08:00:00 29.8 31 Norte 53 Norte 0 -- -- 19
2017-08-10 07:00:00 29.9 37 Norte 54 Norte 0 -- -- 18
2017-08-10 06:00:00 29.6 36 Norte 57 Noroeste 0 -- -- 18
2017-08-10 05:00:00 29.8 39 Norte 61 Norte 0 -- -- 16
2017-08-10 04:00:00 29.5 41 Norte 62 Norte 0 -- -- 14
2017-08-10 03:00:00 29 41 Norte 71 Norte 0 -- -- 14
2017-08-10 02:00:00 28.8 43 Norte 71 Norte 0 -- -- 16
2017-08-10 01:00:00 29.1 46 Norte 83 Norte 0 -- -- 18
2017-08-10 00:00:00 28.9 48 Norte 67 Norte 0 -- -- 20
2017-08-09 23:00:00 29.3 47 Norte 62 Norte 0 -- -- 21
2017-08-09 22:00:00 28.9 45 Norte 70 Norte 0 -- -- 24
2017-08-09 21:00:00 28.8 48 Norte 68 Norte 0 -- -- 26
2017-08-09 20:00:00 30.2 39 Norte 55 Norte 0 -- -- 35
2017-08-09 19:00:00 35.9 30 Norte 49 Norte 0 -- -- 24
2017-08-09 18:00:00 37.6 32 Norte 50 Norte 0 -- -- 23
2017-08-09 17:00:00 38 32 Norte 48 Nordeste 0 -- -- 22
2017-08-09 16:00:00 35.5 31 Nordeste 43 Nordeste 0 -- -- 38
2017-08-09 15:00:00 39.3 32 Nordeste 47 Nordeste 0 -- -- 21
2017-08-09 14:00:00 38.2 33 Nordeste 50 Nordeste 0 -- -- 22
2017-08-09 13:00:00 38.1 17 Nordeste 23 Norte 0 -- -- 29
2017-08-09 12:00:00 33.1 15 Nordeste 22 Nordeste 0 -- -- 43
2017-08-09 11:00:00 31.3 7 Este 18 Nordeste 0 -- -- 45
2017-08-09 10:00:00 28 9 Nordeste 18 Nordeste 0 -- -- 52
2017-08-09 09:00:00 23.8 5 Norte 8 Nordeste 0 -- -- 69
2017-08-09 08:00:00 21.6 0 Calma 9 Oeste 0 -- -- 79
2017-08-09 07:00:00 22 0 Calma 5 Sur 0 -- -- 73
2017-08-09 06:00:00 23.6 5 Sur 19 Norte 0 -- -- 65
2017-08-09 05:00:00 21.4 5 Oeste 9 Sur 0 -- -- 89
2017-08-09 04:00:00 21.7 4 Sudoeste 9 Sudeste 0 -- -- 88
2017-08-09 03:00:00 22.1 3 Sur 21 Sur 0 -- -- 87
2017-08-09 02:00:00 24.3 6 Sudoeste 20 Nordeste 0 -- -- 73
2017-08-09 01:00:00 22.7 3 Sudoeste 6 Norte 0 -- -- 80
2017-08-09 00:00:00 22.6 0 Calma 6 Nordeste 0 -- -- 80
2017-08-08 23:00:00 22.8 4 Sur 8 Sur 0 -- -- 84
2017-08-08 22:00:00 23.5 6 Sur 11 Sur 0 -- -- 81
2017-08-08 21:00:00 25 8 Sur 13 Sur 0 -- -- 74
2017-08-08 20:00:00 27.5 6 Este 13 Este 0 -- -- 64
2017-08-08 19:00:00 29.5 8 Este 19 Nordeste 0 -- -- 59
2017-08-08 18:00:00 30.5 13 Nordeste 22 Nordeste 0 -- -- 57
2017-08-08 17:00:00 30.9 13 Nordeste 31 Nordeste 0 -- -- 55
2017-08-08 16:00:00 31.8 21 Nordeste 31 Nordeste 0 -- -- 52
2017-08-08 15:00:00 32.8 17 Nordeste 27 Nordeste 0 -- -- 49
2017-08-08 14:00:00 32.1 18 Nordeste 27 Nordeste 0 -- -- 52
2017-08-08 13:00:00 30.6 19 Nordeste 30 Nordeste 0 -- -- 56
2017-08-08 12:00:00 30.2 16 Nordeste 26 Nordeste 0 -- -- 57
2017-08-08 11:00:00 28.3 16 Nordeste 26 Nordeste 0 -- -- 62
2017-08-08 10:00:00 26.5 10 Este 21 Sudeste 0 -- -- 66
2017-08-08 09:00:00 23.9 12 Nordeste 18 Norte 0 -- -- 78
2017-08-08 08:00:00 22.1 4 Sur 13 Nordeste 0 -- -- 88
2017-08-08 07:00:00 22.5 7 Nordeste 13 Sur 0 -- -- 88
2017-08-08 06:00:00 24.5 4 Noroeste 14 Noroeste 0 -- -- 63
2017-08-08 05:00:00 22.9 2 Sudoeste 10 Sudeste 0 -- -- 85
2017-08-08 04:00:00 23.4 6 Sudoeste 13 Sur 0 -- -- 79
2017-08-08 03:00:00 24.5 5 Sudoeste 14 Este 0 -- -- 71
2017-08-08 02:00:00 25.5 6 Norte 16 Este 0 -- -- 67
2017-08-08 01:00:00 28.3 3 Sudoeste 7 Sur 0 -- -- 57
2017-08-08 00:00:00 27.9 5 Noroeste 9 Este 0 -- -- 58
2017-08-07 23:00:00 26.4 0 Calma 12 Oeste 0 -- -- 67
2017-08-07 22:00:00 26 2 Sur 9 Sudeste 0 -- -- 70
2017-08-07 21:00:00 26.3 2 Sur 11 Sur 0 -- -- 68
2017-08-07 20:00:00 27.6 9 Sur 18 Sur 0 -- -- 65
2017-08-07 19:00:00 30.6 3 Sudoeste 14 Sudeste 0 -- -- 56
2017-08-07 18:00:00 30.6 3 Este 19 Sur 0 -- -- 56
2017-08-07 17:00:00 31.8 11 Sur 19 Sur 0 -- -- 53
2017-08-07 16:00:00 34.2 12 Sur 21 Sur 0 -- -- 44
2017-08-07 15:00:00 35.8 17 Sur 29 Sur 0 -- -- 41
2017-08-07 14:00:00 37.6 9 Nordeste 19 Este 0 -- -- 37
2017-08-07 13:00:00 34.4 14 Nordeste 20 Nordeste 0 -- -- 46
2017-08-07 12:00:00 32.9 5 Sur 17 Sur 0 -- -- 47
2017-08-07 11:00:00 31.5 4 Sur 13 Sudeste 0 -- -- 52
2017-08-07 10:00:00 30.2 5 Oeste 12 Sur 0 -- -- 50
2017-08-07 09:00:00 29.5 8 Norte 12 Sudeste 0 -- -- 48
2017-08-07 08:00:00 25.5 9 Nordeste 19 Sur 0 -- -- 61
2017-08-07 07:00:00 31.3 6 Sur 24 Norte 0 -- -- 47
2017-08-07 06:00:00 33 14 Nordeste 27 Norte 0 -- -- 25
2017-08-07 05:00:00 31.7 15 Norte 26 Norte 0 -- -- 26
2017-08-07 04:00:00 29.8 17 Norte 29 Norte 0 -- -- 30
2017-08-07 03:00:00 30.4 23 Norte 46 Norte 0 -- -- 33
2017-08-07 02:00:00 24.1 17 Norte 31 Nordeste 0 -- -- 63
2017-08-07 01:00:00 22.3 10 Este 21 Sudeste 0 -- -- 82
2017-08-07 00:00:00 22.5 3 Sur 9 Sudeste 0 -- -- 84
2017-08-06 23:00:00 22.7 4 Sur 9 Sur 0 -- -- 84
2017-08-06 22:00:00 23.2 5 Sur 11 Sudeste 0 -- -- 82
2017-08-06 21:00:00 24.3 8 Sur 20 Sur 0 -- -- 76
2017-08-06 20:00:00 26.7 4 Sur 13 Sudeste 0 -- -- 66
2017-08-06 19:00:00 27.3 10 Sur 24 Sur 0 -- -- 64
2017-08-06 18:00:00 29.8 10 Sur 17 Sudeste 0 -- -- 56
2017-08-06 17:00:00 28 9 Sudeste 29 Sur 0 -- -- 61
2017-08-06 16:00:00 29.9 17 Sur 29 Sur 0 -- -- 56
2017-08-06 15:00:00 31.6 15 Sur 29 Sudoeste 0 -- -- 50
2017-08-06 14:00:00 31.1 17 Nordeste 37 Nordeste 0 -- -- 51
2017-08-06 13:00:00 28.6 28 Nordeste 39 Nordeste 0 -- -- 57
2017-08-06 12:00:00 28 22 Nordeste 32 Nordeste 0 -- -- 59
2017-08-06 11:00:00 25.5 5 Sudeste 13 Sur 0 -- -- 65
2017-08-06 10:00:00 23 4 Sudoeste 12 Sudoeste 0 -- -- 77
2017-08-06 09:00:00 20.7 4 Sur 9 Sudoeste 0 -- -- 89
2017-08-06 08:00:00 19.1 3 Sudoeste 7 Oeste 0 -- -- 90
2017-08-06 07:00:00 18.9 2 Nordeste 4 Oeste 0 -- -- 88
2017-08-06 06:00:00 19.3 0 Calma 5 Norte 0 -- -- 88
2017-08-06 05:00:00 19.8 4 Sur 14 Oeste 0 -- -- 88
2017-08-06 04:00:00 20 5 Oeste 10 Oeste 0 -- -- 86
2017-08-06 03:00:00 20.4 3 Sur 9 Sudoeste 0 -- -- 84
2017-08-06 02:00:00 20.8 4 Sudeste 8 Este 0 -- -- 78
2017-08-06 01:00:00 21.3 0 Calma 6 Sur 0 -- -- 76
2017-08-06 00:00:00 21.8 0 Calma 9 Este 0 -- -- 73
2017-08-05 23:00:00 22.4 3 Este 10 Sudoeste 0 -- -- 72
2017-08-05 22:00:00 23.2 6 Sudoeste 10 Sur 0 -- -- 70
2017-08-05 21:00:00 24.1 6 Sur 15 Sudoeste 0 -- -- 67
2017-08-05 20:00:00 25.6 10 Sur 15 Sur 0 -- -- 63
2017-08-05 19:00:00 26.5 12 Sur 24 Sur 0 -- -- 61
2017-08-05 18:00:00 27.3 9 Sur 27 Sur 0 -- -- 59
2017-08-05 17:00:00 28.2 22 Sur 32 Sudoeste 0 -- -- 56
2017-08-05 16:00:00 30 19 Sur 31 Sudoeste 0 -- -- 50
2017-08-05 15:00:00 30.8 19 Nordeste 38 Nordeste 0 -- -- 48
2017-08-05 14:00:00 30.7 14 Norte 30 Norte 0 -- -- 48
2017-08-05 13:00:00 30.4 8 Este 24 Este 0 -- -- 48
2017-08-05 12:00:00 30.3 10 Nordeste 22 Norte 0 -- -- 48
2017-08-05 11:00:00 26.5 6 Sur 11 Sur 0 -- -- 58
2017-08-05 10:00:00 23.7 6 Sur 11 Sur 0 -- -- 67
2017-08-05 09:00:00 21.4 6 Sudoeste 9 Sur 0 -- -- 78
2017-08-05 08:00:00 18.2 2 Este 5 Oeste 0 -- -- 87
2017-08-05 07:00:00 18.6 2 Oeste 6 Sur 0 -- -- 86
2017-08-05 06:00:00 18.7 4 Sudoeste 6 Oeste 0 -- -- 84
2017-08-05 05:00:00 18.7 4 Noroeste 6 Noroeste 0 -- -- 83
2017-08-05 04:00:00 19.1 0 Calma 6 Sudoeste 0 -- -- 83
2017-08-05 03:00:00 19.4 2 Sur 5 Sudoeste 0 -- -- 82
2017-08-05 02:00:00 19.7 3 Sur 8 Noroeste 0 -- -- 81
2017-08-05 01:00:00 20.1 0 Calma 6 Sur 0 -- -- 81
2017-08-05 00:00:00 20.4 0 Calma 12 Sur 0 -- -- 80
2017-08-04 23:00:00 20.9 6 Sur 9 Sur 0 -- -- 80
2017-08-04 22:00:00 21.5 6 Sur 11 Sur 0 -- -- 75
2017-08-04 21:00:00 22.4 6 Sur 15 Sur 0 -- -- 70
2017-08-04 20:00:00 24.5 12 Sur 24 Sur 0 -- -- 63
2017-08-04 19:00:00 26.7 14 Sudoeste 31 Nordeste 0 -- -- 56
2017-08-04 18:00:00 29.4 20 Norte 33 Nordeste 0 -- -- 44
2017-08-04 17:00:00 30.3 21 Nordeste 37 Nordeste 0 -- -- 43
2017-08-04 16:00:00 29.7 16 Nordeste 30 Nordeste 0 -- -- 45
2017-08-04 15:00:00 30.8 19 Nordeste 46 Nordeste 0 -- -- 42
2017-08-04 14:00:00 30.4 22 Nordeste 37 Norte 0 -- -- 43
2017-08-04 13:00:00 29.4 26 Nordeste 41 Nordeste 0 -- -- 46
2017-08-04 12:00:00 28.2 27 Nordeste 38 Nordeste 0 -- -- 49
2017-08-04 11:00:00 26.5 7 Sur 32 Nordeste 0 -- -- 52
2017-08-04 10:00:00 23.6 4 Sudoeste 10 Oeste 0 -- -- 62
2017-08-04 09:00:00 21 6 Sur 9 Sur 0 -- -- 73
2017-08-04 08:00:00 18.3 3 Sudoeste 6 Noroeste 0 -- -- 85
2017-08-04 07:00:00 17.8 2 Oeste 4 Noroeste 0 -- -- 85
2017-08-04 06:00:00 18 2 Norte 6 Oeste 0 -- -- 85
2017-08-04 05:00:00 18.3 3 Sudoeste 5 Oeste 0 -- -- 86
2017-08-04 04:00:00 18.4 4 Noroeste 9 Norte 0 -- -- 83
2017-08-04 03:00:00 18.8 4 Noroeste 10 Norte 0 -- -- 83
2017-08-04 02:00:00 19.4 2 Noroeste 20 Nordeste 0 -- -- 78
2017-08-04 01:00:00 20.7 9 Norte 42 Norte 0 -- -- 69
2017-08-04 00:00:00 20.6 28 Norte 41 Norte 0 -- -- 67
2017-08-03 23:00:00 21.1 23 Norte 45 Norte 0 -- -- 64
2017-08-03 22:00:00 21.6 26 Norte 43 Norte 0 -- -- 62
2017-08-03 21:00:00 22.2 23 Norte 51 Norte 0 -- -- 59
2017-08-03 20:00:00 23 35 Norte 50 Norte 0 -- -- 60
2017-08-03 19:00:00 25.6 32 Norte 46 Norte 0 -- -- 52
2017-08-03 18:00:00 27.3 30 Norte 51 Nordeste 0 -- -- 48
2017-08-03 17:00:00 28.2 30 Norte 52 Norte 0 -- -- 46
2017-08-03 16:00:00 28 34 Norte 59 Norte 0 -- -- 47
2017-08-03 15:00:00 27.5 36 Norte 54 Nordeste 0 -- -- 49
2017-08-03 14:00:00 27.1 38 Norte 52 Nordeste 0 -- -- 50
2017-08-03 13:00:00 26.9 33 Nordeste 56 Norte 0 -- -- 51
2017-08-03 12:00:00 25.7 36 Norte 54 Norte 0 -- -- 51
2017-08-03 11:00:00 23.9 41 Norte 55 Nordeste 0 -- -- 54
2017-08-03 10:00:00 23.2 30 Norte 52 Norte 0 -- -- 56
2017-08-03 09:00:00 21.4 30 Norte 52 Norte 0 -- -- 63
2017-08-03 08:00:00 19.6 31 Norte 46 Norte 0 -- -- 67
2017-08-03 07:00:00 19.6 27 Norte 41 Norte 0 -- -- 72
2017-08-03 06:00:00 20 21 Norte 43 Norte 0 -- -- 67
2017-08-03 05:00:00 19.9 9 Norte 42 Norte 0 -- -- 67
2017-08-03 04:00:00 20.5 14 Norte 50 Norte 0 -- -- 67
2017-08-03 03:00:00 20.9 29 Norte 48 Norte 0 -- -- 62
2017-08-03 02:00:00 20.9 31 Norte 55 Norte 0 -- -- 63
2017-08-03 01:00:00 21 32 Norte 50 Norte 0 -- -- 62
2017-08-03 00:00:00 21.1 33 Norte 53 Norte 0 -- -- 66
2017-08-02 23:00:00 21.4 44 Norte 60 Norte 0 -- -- 64
2017-08-02 22:00:00 21.6 41 Norte 59 Norte 0 -- -- 60
2017-08-02 21:00:00 21.9 37 Norte 58 Norte 0 -- -- 64
2017-08-02 20:00:00 23.6 32 Norte 51 Nordeste 0 -- -- 56
2017-08-02 19:00:00 25.4 31 Norte 54 Norte 0 -- -- 50
2017-08-02 18:00:00 26.6 34 Norte 53 Nordeste 0 -- -- 50
2017-08-02 17:00:00 26.9 36 Norte 53 Nordeste 0 -- -- 54
2017-08-02 16:00:00 27.8 35 Nordeste 58 Norte 0 -- -- 52
2017-08-02 15:00:00 27.9 38 Nordeste 51 Nordeste 0 -- -- 51
2017-08-02 14:00:00 28 32 Norte 53 Norte 0 -- -- 51
2017-08-02 13:00:00 27.5 33 Norte 52 Norte 0 -- -- 48
2017-08-02 12:00:00 26.8 32 Norte 47 Nordeste 0 -- -- 48
2017-08-02 11:00:00 25.8 35 Norte 54 Norte 0 -- -- 49
2017-08-02 10:00:00 25.3 32 Norte 51 Norte 0 -- -- 40
2017-08-02 09:00:00 23.5 35 Norte 51 Norte 0 -- -- 42
2017-08-02 08:00:00 22.3 30 Norte 50 Norte 0 -- -- 39
2017-08-02 07:00:00 20 19 Norte 32 Norte 0 -- -- 60
2017-08-02 06:00:00 19.9 23 Nordeste 35 Nordeste 0 -- -- 71
2017-08-02 05:00:00 21 11 Norte 49 Norte 0 -- -- 71
2017-08-02 04:00:00 20.6 27 Norte 42 Norte 0 -- -- 72
2017-08-02 03:00:00 20.5 15 Norte 38 Norte 0 -- -- 72
2017-08-02 02:00:00 20.5 13 Norte 24 Norte 0 -- -- 74
2017-08-02 01:00:00 20.5 5 Sudoeste 13 Sudoeste 0 -- -- 77
2017-08-02 00:00:00 21.2 9 Norte 28 Nordeste 0 -- -- 67
2017-08-01 23:00:00 21.8 4 Norte 36 Norte 0 -- -- 68
2017-08-01 22:00:00 22.2 24 Norte 40 Norte 0 -- -- 59
2017-08-01 21:00:00 22.6 27 Norte 43 Norte 0 -- -- 58
2017-08-01 20:00:00 24.5 28 Norte 46 Norte 0 -- -- 50
2017-08-01 19:00:00 26.6 31 Norte 49 Nordeste 0 -- -- 43
2017-08-01 18:00:00 27.1 33 Norte 54 Norte 0 -- -- 47
2017-08-01 17:00:00 28.4 35 Nordeste 53 Nordeste 0 -- -- 41
2017-08-01 16:00:00 29.2 37 Nordeste 58 Norte 0 -- -- 42
2017-08-01 15:00:00 29.4 33 Norte 60 Norte 0 -- -- 46
2017-08-01 14:00:00 28 36 Norte 63 Norte 0 -- -- 50
2017-08-01 13:00:00 28.1 36 Norte 60 Norte 0 -- -- 50
2017-08-01 12:00:00 27.5 37 Norte 55 Norte 0 -- -- 50
2017-08-01 11:00:00 26.3 34 Norte 59 Nordeste 0 -- -- 49
2017-08-01 10:00:00 24.6 37 Norte 54 Norte 0 -- -- 45
2017-08-01 09:00:00 22.5 27 Norte 41 Norte 0 -- -- 58
2017-08-01 08:00:00 20.7 21 Norte 44 Norte 0 -- -- 61
2017-08-01 07:00:00 20.6 24 Norte 41 Nordeste 0 -- -- 57
2017-08-01 06:00:00 20 18 Norte 44 Norte 0 -- -- 68
2017-08-01 05:00:00 18.9 9 Norte 21 Norte 0 -- -- 74
2017-08-01 04:00:00 19.1 6 Sudeste 20 Norte 0 -- -- 79
2017-08-01 03:00:00 19.1 6 Noroeste 11 Norte 0 -- -- 79
2017-08-01 02:00:00 19 4 Oeste 11 Sur 0 -- -- 82
2017-08-01 01:00:00 19.5 6 Sudoeste 12 Sudoeste 0 -- -- 80
2017-08-01 00:00:00 20.1 6 Sur 14 Sudeste 0 -- -- 77
2017-07-31 23:00:00 21.4 6 Sudoeste 23 Norte 0 -- -- 67
2017-07-31 22:00:00 22.8 6 Nordeste 23 Norte 0 -- -- 42
2017-07-31 21:00:00 23.8 15 Norte 48 Norte 0 -- -- 52
2017-07-31 20:00:00 23.3 30 Norte 50 Norte 0 -- -- 60
2017-07-31 19:00:00 25.1 30 Norte 49 Norte 0 -- -- 55
2017-07-31 18:00:00 26.1 30 Norte 51 Nordeste 0 -- -- 51
2017-07-31 17:00:00 27.2 34 Nordeste 52 Nordeste 0 -- -- 49
2017-07-31 16:00:00 27.3 35 Norte 57 Nordeste 0 -- -- 48
2017-07-31 15:00:00 26.8 36 Norte 58 Nordeste 0 -- -- 50
2017-07-31 14:00:00 27.8 40 Nordeste 55 Nordeste 0 -- -- 46
2017-07-31 13:00:00 26.4 40 Nordeste 57 Norte 0 -- -- 52
2017-07-31 12:00:00 25.4 37 Norte 57 Norte 0 -- -- 54
2017-07-31 11:00:00 24.7 37 Norte 52 Norte 0 -- -- 55
2017-07-31 10:00:00 23.4 37 Norte 52 Norte 0 -- -- 57
2017-07-31 09:00:00 21.7 15 Norte 30 Nordeste 0 -- -- 63
2017-07-31 08:00:00 18.8 6 Norte 17 Norte 0 -- -- 73
2017-07-31 07:00:00 18.6 4 Norte 8 Norte 0 -- -- 75
2017-07-31 06:00:00 19.6 6 Oeste 11 Nordeste 0 -- -- 73
2017-07-31 05:00:00 20.7 4 Sudoeste 47 Nordeste 0 -- -- 69
2017-07-31 04:00:00 19.5 6 Norte 17 Norte 0 -- -- 69
2017-07-31 03:00:00 21.2 5 Sur 28 Norte 0 -- -- 69
2017-07-31 02:00:00 23.9 26 Norte 47 Norte 0 -- -- 28
2017-07-31 01:00:00 23.4 28 Norte 38 Norte 0 -- -- 39
2017-07-31 00:00:00 20.8 0 Calma 15 Oeste 0 -- -- 68
2017-07-30 23:00:00 21.5 7 Oeste 14 Oeste 0 -- -- 64
2017-07-30 22:00:00 22.4 6 Sudeste 19 Norte 0 -- -- 62
2017-07-30 21:00:00 26.6 6 Noroeste 34 Norte 0 -- -- 40
2017-07-30 20:00:00 27.1 27 Norte 42 Norte 0 -- -- 43
2017-07-30 19:00:00 27.7 30 Norte 48 Nordeste 0 -- -- 50
2017-07-30 18:00:00 28.2 32 Nordeste 45 Nordeste 0 -- -- 49
2017-07-30 17:00:00 29.6 29 Nordeste 45 Nordeste 0 -- -- 47
2017-07-30 16:00:00 31.4 33 Nordeste 46 Nordeste 0 -- -- 43
2017-07-30 15:00:00 34 28 Nordeste 46 Norte 0 -- -- 36
2017-07-30 14:00:00 34.1 32 Norte 46 Norte 0 -- -- 32
2017-07-30 13:00:00 34.9 33 Norte 49 Norte 0 -- -- 27
2017-07-30 12:00:00 34.2 35 Norte 49 Norte 0 -- -- 19
2017-07-30 11:00:00 33.5 36 Norte 52 Norte 0 -- -- 20
2017-07-30 10:00:00 33 35 Norte 49 Norte 0 -- -- 14
2017-07-30 09:00:00 31.7 32 Norte 44 Norte 0 -- -- 13
2017-07-30 08:00:00 29.9 22 Norte 40 Norte 0 -- -- 11
2017-07-30 07:00:00 29.4 28 Norte 41 Nordeste 0 -- -- 11
2017-07-30 06:00:00 29.3 28 Norte 43 Norte 0 -- -- 12
2017-07-30 05:00:00 29.6 26 Norte 46 Norte 0 -- -- 10
2017-07-30 04:00:00 29.9 35 Norte 51 Norte 0 -- -- 8
2017-07-30 03:00:00 30.5 35 Norte 48 Norte 0 -- -- 7
2017-07-30 02:00:00 31 36 Norte 48 Norte 0 -- -- 8
2017-07-30 01:00:00 30.5 28 Norte 48 Norte 0 -- -- 8
2017-07-30 00:00:00 31.3 33 Norte 48 Norte 0 -- -- 8
2017-07-29 23:00:00 32.1 22 Norte 32 Norte 0 -- -- 11
2017-07-29 22:00:00 32.8 23 Norte 32 Norte 0 -- -- 13
2017-07-29 21:00:00 31.4 19 Nordeste 26 Nordeste 0 -- -- 17
2017-07-29 20:00:00 34 16 Nordeste 34 Norte 0 -- -- 27
2017-07-29 19:00:00 38.6 27 Norte 40 Norte 0 -- -- 12
2017-07-29 18:00:00 40 24 Norte 36 Nordeste 0 -- -- 11
2017-07-29 17:00:00 40.5 21 Nordeste 30 Nordeste 0 -- -- 14
2017-07-29 16:00:00 38.7 17 Este 30 Nordeste 0 -- -- 27
2017-07-29 15:00:00 39.1 19 Nordeste 29 Este 0 -- -- 20
2017-07-29 14:00:00 38.1 16 Nordeste 25 Nordeste 0 -- -- 19
2017-07-29 13:00:00 32.8 15 Nordeste 23 Nordeste 0 -- -- 45
2017-07-29 12:00:00 31.3 11 Nordeste 16 Este 0 -- -- 44
2017-07-29 11:00:00 29.6 6 Sudeste 14 Sur 0 -- -- 40
2017-07-29 10:00:00 28.2 3 Sur 25 Norte 0 -- -- 40
2017-07-29 09:00:00 29.5 13 Norte 19 Norte 0 -- -- 17
2017-07-29 08:00:00 29.3 6 Sudeste 29 Norte 0 -- -- 24
2017-07-29 07:00:00 31.7 21 Norte 35 Norte 0 -- -- 9
2017-07-29 06:00:00 31.6 24 Norte 36 Norte 0 -- -- 10
2017-07-29 05:00:00 32 20 Norte 35 Norte 0 -- -- 10
2017-07-29 04:00:00 32.4 24 Norte 39 Norte 0 -- -- 11
2017-07-29 03:00:00 32 27 Norte 44 Norte 0 -- -- 13
2017-07-29 02:00:00 31.2 28 Norte 44 Norte 0 -- -- 11
2017-07-29 01:00:00 30.4 24 Norte 41 Norte 0 -- -- 14
2017-07-29 00:00:00 31 26 Norte 39 Norte 0 -- -- 14
2017-07-28 23:00:00 30.5 24 Nordeste 37 Nordeste 0 -- -- 22
2017-07-28 22:00:00 33.7 18 Norte 40 Norte 0 -- -- 10
2017-07-28 21:00:00 32.9 29 Norte 40 Norte 0 -- -- 21
2017-07-28 20:00:00 33.5 28 Nordeste 39 Norte 0 -- -- 26
2017-07-28 19:00:00 35.1 25 Norte 45 Nordeste 0 -- -- 24
2017-07-28 18:00:00 35.7 28 Nordeste 40 Nordeste 0 -- -- 25
2017-07-28 17:00:00 38.9 24 Nordeste 41 Nordeste 0 -- -- 16
2017-07-28 16:00:00 38.3 25 Nordeste 40 Nordeste 0 -- -- 15
2017-07-28 15:00:00 39.5 24 Nordeste 39 Nordeste 0 -- -- 12
2017-07-28 14:00:00 39.1 27 Nordeste 37 Nordeste 0 -- -- 13
2017-07-28 13:00:00 37.5 21 Nordeste 33 Nordeste 0 -- -- 19
2017-07-28 12:00:00 36.2 15 Nordeste 23 Nordeste 0 -- -- 19
2017-07-28 11:00:00 32.9 16 Nordeste 26 Nordeste 0 -- -- 26
2017-07-28 10:00:00 30.6 17 Nordeste 33 Norte 0 -- -- 40
2017-07-28 09:00:00 31.4 24 Norte 45 Norte 0 -- -- 22
2017-07-28 08:00:00 29.1 32 Norte 47 Norte 0 -- -- 25
2017-07-28 07:00:00 29 33 Nordeste 48 Norte 0 -- -- 28
2017-07-28 06:00:00 32.2 36 Norte 61 Norte 0 -- -- 14
2017-07-28 05:00:00 32.6 38 Norte 58 Norte 0 -- -- 12
2017-07-28 04:00:00 33.1 45 Norte 59 Norte 0 -- -- 11
2017-07-28 03:00:00 31.8 41 Norte 56 Norte 0 -- -- 13
2017-07-28 02:00:00 33.1 32 Norte 54 Norte 0 -- -- 12
2017-07-28 01:00:00 33.7 34 Norte 51 Norte 0 -- -- 10
2017-07-28 00:00:00 33.4 37 Norte 50 Norte 0 -- -- 12
2017-07-27 23:00:00 34 27 Norte 44 Norte 0 -- -- 12
2017-07-27 22:00:00 35.2 23 Norte 45 Norte 0 -- -- 12
2017-07-27 21:00:00 35.4 22 Norte 37 Norte 0 -- -- 12
2017-07-27 20:00:00 36.3 20 Norte 34 Norte 0 -- -- 11
2017-07-27 19:00:00 37.5 20 Norte 37 Norte 0 -- -- 12
2017-07-27 18:00:00 38.6 24 Norte 35 Nordeste 0 -- -- 11
2017-07-27 17:00:00 39.3 23 Nordeste 36 Nordeste 0 -- -- 13
2017-07-27 16:00:00 39.4 26 Nordeste 39 Nordeste 0 -- -- 12
2017-07-27 15:00:00 39.1 26 Nordeste 42 Norte 0 -- -- 12
2017-07-27 14:00:00 38 30 Norte 44 Nordeste 0 -- -- 14
2017-07-27 13:00:00 37.3 24 Norte 45 Nordeste 0 -- -- 15
2017-07-27 12:00:00 35.9 21 Nordeste 40 Nordeste 0 -- -- 24
2017-07-27 11:00:00 36.6 23 Norte 42 Nordeste 0 -- -- 13
2017-07-27 10:00:00 34.6 25 Norte 41 Norte 0 -- -- 14
2017-07-27 09:00:00 32.9 28 Norte 43 Norte 0 -- -- 13
2017-07-27 08:00:00 31.5 29 Norte 46 Norte 0 -- -- 15
2017-07-27 07:00:00 31.3 29 Norte 46 Norte 0 -- -- 14
2017-07-27 06:00:00 32.8 27 Norte 51 Norte 0 -- -- 11
2017-07-27 05:00:00 33.3 31 Norte 50 Norte 0 -- -- 10
2017-07-27 04:00:00 31.9 32 Norte 48 Norte 0 -- -- 11
2017-07-27 03:00:00 32.3 30 Norte 51 Norte 0 -- -- 11
2017-07-27 02:00:00 32.1 33 Norte 49 Norte 0 -- -- 13
2017-07-27 01:00:00 32.6 35 Norte 51 Norte 0 -- -- 11
2017-07-27 00:00:00 32.1 27 Norte 41 Norte 0 -- -- 13
2017-07-26 23:00:00 23.5 5 Sudoeste 13 Sudoeste 0 -- -- 64
2017-07-26 22:00:00 28.3 9 Sur 35 Norte 0 -- -- 44
2017-07-26 21:00:00 28.9 9 Nordeste 26 Norte 0 -- -- 20
2017-07-26 20:00:00 29.8 9 Sudoeste 18 Nordeste 0 -- -- 44
2017-07-26 19:00:00 31.6 8 Sur 17 Este 0 -- -- 42
2017-07-26 18:00:00 31.6 11 Sur 26 Sudoeste 0 -- -- 44
2017-07-26 17:00:00 35.5 13 Sur 34 Nordeste 0 -- -- 35
2017-07-26 16:00:00 38.1 22 Norte 41 Norte 0 -- -- 16
2017-07-26 15:00:00 38 27 Norte 44 Nordeste 0 -- -- 17
2017-07-26 14:00:00 36.3 30 Norte 44 Norte 0 -- -- 24
2017-07-26 13:00:00 35.5 31 Nordeste 43 Nordeste 0 -- -- 23
2017-07-26 12:00:00 35.2 27 Nordeste 41 Nordeste 0 -- -- 18
2017-07-26 11:00:00 34.8 21 Norte 40 Nordeste 0 -- -- 17
2017-07-26 10:00:00 30 30 Nordeste 39 Norte 0 -- -- 29
2017-07-26 09:00:00 30.7 24 Norte 40 Norte 0 -- -- 16
2017-07-26 08:00:00 29.2 23 Norte 39 Norte 0 -- -- 16
2017-07-26 07:00:00 29.2 18 Norte 31 Norte 0 -- -- 16
2017-07-26 06:00:00 29.6 18 Norte 38 Norte 0 -- -- 15
2017-07-26 05:00:00 29.7 26 Norte 48 Norte 0 -- -- 16
2017-07-26 04:00:00 29.6 33 Norte 51 Norte 0 -- -- 17
2017-07-26 03:00:00 29.1 33 Norte 50 Norte 0 -- -- 17
2017-07-26 02:00:00 29.2 33 Norte 51 Norte 0 -- -- 20
2017-07-26 01:00:00 29.2 37 Norte 52 Norte 0 -- -- 19
2017-07-26 00:00:00 28.8 37 Norte 51 Norte 0 -- -- 20
2017-07-25 23:00:00 28.8 35 Norte 50 Norte 0 -- -- 23
2017-07-25 22:00:00 29.2 28 Norte 45 Norte 0 -- -- 23
2017-07-25 21:00:00 29.6 22 Norte 45 Norte 0 -- -- 23
2017-07-25 20:00:00 30 29 Norte 45 Nordeste 0 -- -- 27
2017-07-25 19:00:00 30.1 32 Nordeste 46 Nordeste 0 -- -- 42
2017-07-25 18:00:00 32.8 32 Norte 47 Norte 0 -- -- 29
2017-07-25 17:00:00 32.6 32 Norte 45 Norte 0 -- -- 32
2017-07-25 16:00:00 32.8 33 Norte 58 Nordeste 0 -- -- 29
2017-07-25 15:00:00 32.9 35 Norte 57 Norte 0 -- -- 31
2017-07-25 14:00:00 31.5 38 Norte 54 Norte 0 -- -- 34
2017-07-25 13:00:00 30.4 34 Norte 47 Nordeste 0 -- -- 44
2017-07-25 12:00:00 32.2 32 Norte 48 Norte 0 -- -- 32
2017-07-25 11:00:00 32 31 Norte 52 Norte 0 -- -- 26
2017-07-25 10:00:00 30.2 30 Norte 50 Norte 0 -- -- 29
2017-07-25 09:00:00 28.5 35 Norte 48 Norte 0 -- -- 28
2017-07-25 08:00:00 28.8 30 Norte 45 Norte 0 -- -- 22
2017-07-25 07:00:00 28.9 27 Norte 47 Norte 0 -- -- 19
2017-07-25 06:00:00 28.2 28 Norte 50 Norte 0 -- -- 21
2017-07-25 05:00:00 28 32 Norte 51 Norte 0 -- -- 24
2017-07-25 04:00:00 27.4 33 Norte 47 Norte 0 -- -- 28
2017-07-25 03:00:00 27.9 27 Nordeste 50 Norte 0 -- -- 26
2017-07-25 02:00:00 28.8 26 Norte 57 Norte 0 -- -- 19
2017-07-25 01:00:00 29.6 41 Norte 58 Norte 0 -- -- 23
2017-07-25 00:00:00 28.3 31 Norte 48 Norte 0 -- -- 21
2017-07-24 23:00:00 27.8 36 Norte 60 Norte 0 -- -- 27
2017-07-24 22:00:00 27.3 43 Norte 60 Norte 0 -- -- 31
2017-07-24 21:00:00 27 44 Norte 65 Norte 0 -- -- 33
2017-07-24 20:00:00 27.9 34 Norte 48 Norte 0 -- -- 41
2017-07-24 19:00:00 30.9 24 Norte 57 Norte 0 -- -- 36
2017-07-24 18:00:00 30.9 27 Norte 46 Nordeste 0 -- -- 38
2017-07-24 17:00:00 32.8 31 Norte 51 Nordeste 0 -- -- 34
2017-07-24 16:00:00 32.5 33 Norte 53 Norte 0 -- -- 34
2017-07-24 15:00:00 31.3 40 Norte 57 Norte 0 -- -- 27
2017-07-24 14:00:00 30.6 37 Norte 53 Nordeste 0 -- -- 33
2017-07-24 13:00:00 29.8 32 Norte 50 Nordeste 0 -- -- 44
2017-07-24 12:00:00 30.4 9 Sudoeste 44 Norte 0 -- -- 41
2017-07-24 11:00:00 28.2 9 Noroeste 32 Norte 0 -- -- 37
2017-07-24 10:00:00 26.5 11 Este 31 Norte 0 -- -- 46
2017-07-24 09:00:00 25.6 5 Sudoeste 52 Norte 0 -- -- 40
2017-07-24 08:00:00 24.7 30 Norte 50 Norte 0 -- -- 27
2017-07-24 07:00:00 24.7 28 Norte 51 Norte 0 -- -- 29
2017-07-24 06:00:00 19.9 6 Noroeste 19 Norte 0 -- -- 75
2017-07-24 05:00:00 20.1 5 Sudoeste 16 Oeste 0 -- -- 79
2017-07-24 04:00:00 24.9 15 Noroeste 50 Norte 0 -- -- 48
2017-07-24 03:00:00 27 32 Norte 51 Norte 0 -- -- 18
2017-07-24 02:00:00 25.6 30 Norte 51 Norte 0 -- -- 22
2017-07-24 01:00:00 23.9 25 Norte 63 Norte 0 -- -- 29
2017-07-24 00:00:00 20.6 48 Norte 68 Norte 0 -- -- 66
2017-07-23 23:00:00 20.9 48 Norte 68 Norte 0 -- -- 66
2017-07-23 22:00:00 21.7 33 Norte 58 Norte 0 -- -- 59
2017-07-23 21:00:00 21.8 43 Norte 67 Norte 0 -- -- 61
2017-07-23 20:00:00 23.2 42 Norte 59 Norte 0 -- -- 56
2017-07-23 19:00:00 26.1 35 Norte 58 Norte 0 -- -- 50
2017-07-23 18:00:00 26.4 37 Norte 61 Norte 0 -- -- 48
2017-07-23 17:00:00 26.1 44 Norte 63 Norte 0 -- -- 52
2017-07-23 16:00:00 26.3 44 Norte 69 Norte 0 -- -- 51
2017-07-23 15:00:00 27.1 40 Norte 61 Norte 0 -- -- 49
2017-07-23 14:00:00 27.2 41 Norte 64 Norte 0 -- -- 51
2017-07-23 13:00:00 25.9 46 Norte 64 Norte 0 -- -- 50
2017-07-23 12:00:00 26 36 Norte 58 Norte 0 -- -- 50
2017-07-23 11:00:00 23.8 39 Norte 65 Norte 0 -- -- 58
2017-07-23 10:00:00 22.5 37 Norte 63 Norte 0 -- -- 58
2017-07-23 09:00:00 21 40 Norte 60 Norte 0 -- -- 59
2017-07-23 08:00:00 19.6 32 Norte 63 Norte 0 -- -- 72
2017-07-23 07:00:00 19.9 35 Norte 57 Norte 0 -- -- 62
2017-07-23 06:00:00 19.4 29 Norte 65 Norte 0 -- -- 62
2017-07-23 05:00:00 19.8 27 Norte 63 Norte 0 -- -- 59
2017-07-23 04:00:00 19.1 37 Norte 68 Norte 0 -- -- 70
2017-07-23 03:00:00 19.9 46 Norte 75 Norte 0 -- -- 66
2017-07-23 02:00:00 20.1 43 Norte 78 Norte 0 -- -- 65
2017-07-23 01:00:00 19.9 44 Norte 71 Norte 0 -- -- 63
2017-07-23 00:00:00 19.8 35 Norte 67 Norte 0 -- -- 69
2017-07-22 23:00:00 20.7 43 Norte 71 Norte 0 -- -- 64
2017-07-22 22:00:00 20.3 37 Norte 64 Norte 0 -- -- 66
2017-07-22 21:00:00 20.6 36 Norte 56 Norte 0 -- -- 63
2017-07-22 20:00:00 21.9 35 Norte 62 Norte 0 -- -- 60
2017-07-22 19:00:00 23.1 39 Norte 64 Norte 0 -- -- 56
2017-07-22 18:00:00 23.8 41 Norte 69 Nordeste 0 -- -- 55
2017-07-22 17:00:00 24.6 43 Norte 66 Norte 0 -- -- 50
2017-07-22 16:00:00 24.7 42 Norte 66 Norte 0 -- -- 50
2017-07-22 15:00:00 24.3 45 Norte 66 Norte 0 -- -- 52
2017-07-22 14:00:00 25.4 38 Norte 59 Norte 0 -- -- 52
2017-07-22 13:00:00 24.5 39 Norte 62 Norte 0 -- -- 53
2017-07-22 12:00:00 23.4 41 Norte 67 Norte 0 -- -- 55
2017-07-22 11:00:00 22.2 37 Norte 59 Norte 0 -- -- 61
2017-07-22 10:00:00 21.2 31 Norte 53 Norte 0 -- -- 63
2017-07-22 09:00:00 20.3 26 Norte 53 Norte 0 -- -- 69
2017-07-22 08:00:00 19.4 32 Norte 52 Norte 0 -- -- 71
2017-07-22 07:00:00 19.1 33 Norte 54 Norte 0 -- -- 71
2017-07-22 06:00:00 19.5 32 Norte 59 Norte 0 -- -- 61
2017-07-22 05:00:00 19.2 39 Norte 56 Norte 0 -- -- 69
2017-07-22 04:00:00 19.8 31 Norte 59 Norte 0 -- -- 63
2017-07-22 03:00:00 19.4 32 Norte 50 Norte 0 -- -- 65
2017-07-22 02:00:00 19.4 34 Norte 57 Norte 0 -- -- 66
2017-07-22 01:00:00 19.4 39 Norte 58 Norte 0 -- -- 67
2017-07-22 00:00:00 19.7 34 Norte 55 Norte 0 -- -- 66
2017-07-21 23:00:00 20.2 35 Norte 56 Norte 0 -- -- 62
2017-07-21 22:00:00 20.1 41 Norte 63 Norte 0 -- -- 62
2017-07-21 21:00:00 20.3 37 Norte 55 Norte 0 -- -- 62
2017-07-21 20:00:00 21.3 27 Norte 58 Norte 0 -- -- 59
2017-07-21 19:00:00 22.9 38 Norte 70 Norte 0 -- -- 61
2017-07-21 18:00:00 23.8 39 Norte 63 Norte 0 -- -- 52
2017-07-21 17:00:00 25 36 Norte 68 Nordeste 0 -- -- 51
2017-07-21 16:00:00 25.4 44 Norte 65 Nordeste 0 -- -- 52
2017-07-21 15:00:00 25.3 48 Norte 71 Nordeste 0 -- -- 49
2017-07-21 14:00:00 24.8 45 Norte 69 Norte 0 -- -- 50
2017-07-21 13:00:00 24.3 43 Norte 64 Norte 0 -- -- 53
2017-07-21 12:00:00 24.3 34 Norte 64 Norte 0 -- -- 51
2017-07-21 11:00:00 22.3 39 Norte -- -- -- -- -- 58
2017-07-21 10:00:00 -- -- -- -- -- -- -- -- --
2017-07-21 09:00:00 -- -- -- -- -- -- -- -- --
2017-07-21 08:00:00 -- -- -- -- -- -- -- -- --
2017-07-21 07:00:00 -- -- -- -- -- -- -- -- --
2017-07-21 06:00:00 -- -- -- -- -- -- -- -- --
2017-07-21 05:00:00 -- -- -- -- -- -- -- -- --
2017-07-21 04:00:00 -- -- -- -- -- -- -- -- --
2017-07-21 03:00:00 -- -- -- -- -- -- -- -- --
2017-07-21 02:00:00 -- -- -- -- -- -- -- -- --
2017-07-21 01:00:00 -- -- -- -- -- -- -- -- --
2017-07-21 00:00:00 -- -- -- -- -- -- -- -- --
2017-07-20 23:00:00 -- -- -- -- -- -- -- -- --
2017-07-20 22:00:00 -- -- -- -- -- -- -- -- --
2017-07-20 21:00:00 -- -- -- -- -- -- -- -- --
2017-07-20 20:00:00 -- -- -- -- -- -- -- -- --
2017-07-20 19:00:00 -- -- -- -- -- -- -- -- --
2017-07-20 18:00:00 -- -- -- -- -- -- -- -- --
2017-07-20 17:00:00 -- -- -- -- -- -- -- -- --
2017-07-20 16:00:00 -- -- -- -- -- -- -- -- --
2017-07-20 15:00:00 -- -- -- -- -- -- -- -- --
2017-07-20 14:00:00 -- -- -- -- -- -- -- -- --
2017-07-20 13:00:00 -- -- -- -- -- -- -- -- --
2017-07-20 12:00:00 -- -- -- -- -- -- -- -- --
2017-07-20 11:00:00 -- -- -- -- -- -- -- -- --
2017-07-20 10:00:00 -- -- -- -- -- -- -- -- --
2017-07-20 09:00:00 -- -- -- -- -- -- -- -- --
2017-07-20 08:00:00 -- -- -- -- -- -- -- -- --
2017-07-20 07:00:00 -- -- -- -- -- -- -- -- --
2017-07-20 06:00:00 -- -- -- -- -- -- -- -- --
2017-07-20 05:00:00 -- -- -- -- -- -- -- -- --
2017-07-20 04:00:00 -- -- -- -- -- -- -- -- --
2017-07-20 03:00:00 -- -- -- -- -- -- -- -- --
2017-07-20 02:00:00 -- -- -- -- -- -- -- -- --
2017-07-20 01:00:00 -- -- -- -- -- -- -- -- --
2017-07-20 00:00:00 -- -- -- -- -- -- -- -- --
2017-07-19 23:00:00 -- -- -- -- -- -- -- -- --
2017-07-19 22:00:00 -- -- -- -- -- -- -- -- --
2017-07-19 21:00:00 -- -- -- -- -- -- -- -- --
2017-07-19 20:00:00 -- -- -- -- -- -- -- -- --
2017-07-19 19:00:00 -- -- -- -- -- -- -- -- --
2017-07-19 18:00:00 -- -- -- -- -- -- -- -- --
2017-07-19 17:00:00 -- -- -- -- -- -- -- -- --
2017-07-19 16:00:00 -- -- -- -- -- -- -- -- --
2017-07-19 15:00:00 -- -- -- -- -- -- -- -- --
2017-07-19 14:00:00 -- -- -- -- -- -- -- -- --
2017-07-19 13:00:00 -- -- -- -- -- -- -- -- --
2017-07-19 12:00:00 -- -- -- -- -- -- -- -- --
2017-07-19 11:00:00 -- -- -- -- -- -- -- -- --
2017-07-19 10:00:00 -- -- -- -- -- -- -- -- --
2017-07-19 09:00:00 -- -- -- -- -- -- -- -- --
2017-07-19 08:00:00 -- -- -- -- -- -- -- -- --
2017-07-19 07:00:00 -- -- -- -- -- -- -- -- --
2017-07-19 06:00:00 -- -- -- -- -- -- -- -- --
2017-07-19 05:00:00 -- -- -- -- -- -- -- -- --
2017-07-19 04:00:00 -- -- -- -- -- -- -- -- --
2017-07-19 03:00:00 -- -- -- -- -- -- -- -- --
2017-07-19 02:00:00 -- -- -- -- -- -- -- -- --
2017-07-19 01:00:00 -- -- -- -- -- -- -- -- --
2017-07-19 00:00:00 -- -- -- -- -- -- -- -- --